Augusta, MI (49012)

3:54 AM EDT on September 04, 2015 (GMT -0400)
Gull lake Sewer Authority | | Change Station
CLOSE
Current Station
Personal Weather Station
Location: Richland, MI
Elevation: 905 ft
Nearby Weather Stations

Elev 905 ft 42.37 °N, 85.40 °W | Updated 4 minutes ago

Overcast
Overcast
66.9 °F
Feels Like 66.9 °F
N
0.0
Wind Variable Wind from WSW
Gusts 5.0 mph

Today
High -- | Low -- °F
--% Chance of Precip.
Yesterday
High -- | Low -- °F
Precip. -- in
7:09 AM 8:10 PM
Waning Gibbous, 62% visible
Pressure 29.95 in
Visibility 6.0 miles
Clouds Mostly Cloudy 400 ft
Dew Point 65 °F
Humidity 95%
Rainfall 0.00 in
Snow Depth Not available.
UV 0 out of 12
Pollen 9.10 out of 12
Air Quality Not available.
Flu Activity Not available.
SPECI KBTL 040704Z AUTO 28004KT 6SM BR BKN004 20/19 A2995 RMK AO2 T02000189
Pressure 29.95 in
Visibility 6.0 miles
Clouds Mostly Cloudy 400 ft
Dew Point 65 °F
Humidity 95%
Rainfall 0.00 in
Snow Depth Not available.
UV 0 out of 12
Pollen 9.10 out of 12
Air Quality Not available.
Flu Activity Not available.
SPECI KBTL 040704Z AUTO 28004KT 6SM BR BKN004 20/19 A2995 RMK AO2 T02000189

10-Day Weather Forecast

×

Almanac

Astronomy

Sep. 04, 2015 Rise Set
Actual Time
Civil Twilight
Nautical Twilight
Astronomical Twilight
Moon
Length of Visible Light
Length of Day
Tomorrow will be .
, % of the Moon is Illuminated

Today's Extremes

State Highs State Lows

Community

WunderPhotos

Upload Photos

1,852,132 photos uploaded!

WunderBlogs® & News

Nearby

Air Quality

  Air Quality AQ Index Pollutant
Not available.

Snow Depth

Station Depth Elevation

Earthquake Activity

City Distance Mag. Time & Date
Minimum magnitude displayed is 2.5.

Coastal Water Temperatures

Place Temperature

Stations

Nearby Weather Stations

Station Location Temp. Windchill Dew Point Humidity Wind Precip. Elev Updated Type